Terminal Aerodrome Forecast
Issued by NWS Upton, NY

Home | Current Version | Previous Version | Text Only | Print | Product List | Glossary On
Versions: 1 2 3 4 5 6 7 8 9 10 11 12 13 14 15 16 17 18 19 20 21 22 23 24 25 26 27 28 29 30
588
FTUS41 KOKX 290544
TAFEWR
TAF
KEWR 290544Z 2906/3012 08009KT P6SM -RA SCT040 BKN070
     FM290800 06010KT 6SM -RA OVC035
     FM291100 06011KT 5SM -RA OVC025
     FM291500 06007KT 5SM -RA BR OVC015
     FM292200 10005KT 5SM BR OVC015
     FM300400 11004KT 5SM BR OVC009
     FM300600 13004KT 5SM BR OVC007=

USA.gov is the U.S. government's official web portal to all federal, state and local government web resources and services.